Time;durP1;ratioP1;P1;durP2;ratioP2;P2;SDS_P1;SDS_P2;PMS_P1;PMS_P2;Temp;Humidity;BMP_temperature;BMP_pressure;BME280_temperature;BME280_humidity;BME280_pressure;Samples;Min_cycle;Max_cycle;Signal;HPM_P1;HPM_P2
2023/07/15 00:01:24;;;;;;;1.65;1.00;;;;;;;37.61;19.75;101017.69;4983187;28;20097;-75
2023/07/15 00:03:54;;;;;;;0.80;0.80;;;;;;;37.56;19.28;101024.47;4992795;28;20054;-72
2023/07/15 00:06:24;;;;;;;1.27;1.10;;;;;;;37.48;19.60;101011.56;4988640;28;20078;-73
2023/07/15 00:08:53;;;;;;;1.50;0.73;;;;;;;37.47;20.25;101017.94;4991058;28;20503;-74
2023/07/15 00:11:28;;;;;;;3.08;0.98;;;;;;;37.44;17.87;101002.84;4997153;28;20455;-73
2023/07/15 00:13:58;;;;;;;2.65;1.00;;;;;;;37.48;18.97;101008.88;4997320;28;20490;-74
2023/07/15 00:16:26;;;;;;;2.55;1.10;;;;;;;37.46;20.18;101000.88;5016656;28;20096;-73
2023/07/15 00:18:56;;;;;;;4.53;1.20;;;;;;;37.40;20.39;100987.00;5012469;28;20053;-78
2023/07/15 00:21:26;;;;;;;2.28;0.90;;;;;;;37.49;20.46;100994.38;5030184;28;20050;-74
2023/07/15 00:23:56;;;;;;;3.90;1.07;;;;;;;37.52;21.30;100983.31;5030149;28;20042;-76
2023/07/15 00:26:30;;;;;;;1.80;1.10;;;;;;;37.48;20.64;100993.53;5030937;28;20074;-74
2023/07/15 00:29:00;;;;;;;1.13;1.00;;;;;;;37.38;19.62;100988.97;5022621;28;20599;-79
2023/07/15 00:31:31;;;;;;;2.25;0.80;;;;;;;37.29;20.99;100983.34;5011539;28;20443;-74
2023/07/15 00:34:00;;;;;;;1.10;0.88;;;;;;;37.23;20.15;100986.53;5015862;28;20054;-75
2023/07/15 00:36:36;;;;;;;2.15;1.10;;;;;;;37.17;20.93;100991.56;5008386;28;20053;-75
2023/07/15 00:39:11;;;;;;;1.83;0.90;;;;;;;37.13;20.39;100988.22;5006467;28;20140;-76
2023/07/15 00:41:41;;;;;;;1.50;0.98;;;;;;;37.13;21.28;100988.22;5006401;28;20053;-74
2023/07/15 00:44:14;;;;;;;3.15;1.05;;;;;;;37.08;20.00;100985.88;5007233;28;20058;-76
2023/07/15 00:47:12;;;;;;;1.27;0.93;;;;;;;37.04;21.62;100983.53;5005847;28;20038;-75
2023/07/15 00:49:41;;;;;;;3.15;0.88;;;;;;;37.04;20.75;100991.63;5008264;28;20042;-75
2023/07/15 00:52:13;;;;;;;2.45;1.00;;;;;;;37.02;19.97;100980.09;5004294;28;20057;-75
2023/07/15 00:54:44;;;;;;;2.42;0.90;;;;;;;37.02;19.66;100980.09;5022576;28;20049;-74
2023/07/15 00:57:15;;;;;;;4.40;0.93;;;;;;;36.89;19.57;100969.41;5025293;28;20056;-77
2023/07/15 00:59:46;;;;;;;2.38;1.00;;;;;;;36.86;19.53;100973.22;5023509;28;20282;-73
2023/07/15 01:02:17;;;;;;;3.58;1.38;;;;;;;36.83;19.58;100965.34;5022124;28;20046;-75
2023/07/15 01:04:47;;;;;;;4.38;1.70;;;;;;;36.76;20.62;100966.81;5023593;28;20049;-74
2023/07/15 01:07:16;;;;;;;2.30;0.90;;;;;;;36.73;20.71;100963.50;5026073;28;20761;-74
2023/07/15 01:09:46;;;;;;;1.60;0.90;;;;;;;36.65;20.41;100956.88;5025110;28;20049;-75
2023/07/15 01:12:15;;;;;;;1.85;0.95;;;;;;;36.53;19.57;100956.91;5028654;28;20057;-77
2023/07/15 01:14:44;;;;;;;2.50;1.00;;;;;;;36.41;20.07;100954.19;5019286;28;20049;-79
2023/07/15 01:17:13;;;;;;;2.22;1.02;;;;;;;36.35;20.17;100949.25;5006445;28;20138;-76
2023/07/15 01:19:43;;;;;;;2.08;1.10;;;;;;;36.24;21.56;100946.50;5003894;28;20068;-75
2023/07/15 01:22:12;;;;;;;4.82;1.77;;;;;;;36.18;21.34;100950.56;5008402;28;20054;-78
2023/07/15 01:24:42;;;;;;;3.45;1.17;;;;;;;36.16;22.26;100948.94;5004092;28;20053;-76
2023/07/15 01:27:11;;;;;;;4.43;1.25;;;;;;;36.18;22.00;100941.63;5006163;28;20058;-75
2023/07/15 01:29:40;;;;;;;1.85;0.98;;;;;;;36.15;22.15;100955.28;5003025;28;20054;-76
2023/07/15 01:32:09;;;;;;;2.13;1.00;;;;;;;36.13;22.14;100949.19;5001767;28;20054;-76
2023/07/15 01:34:37;;;;;;;6.22;1.20;;;;;;;36.08;21.14;100946.81;5005531;28;20049;-74
2023/07/15 01:37:06;;;;;;;1.60;1.20;;;;;;;36.01;20.45;100942.84;5004768;28;20050;-73
2023/07/15 01:39:35;;;;;;;1.50;0.93;;;;;;;35.94;21.01;100939.75;5002283;28;20050;-76
2023/07/15 01:42:05;;;;;;;1.52;1.00;;;;;;;35.88;20.93;100942.91;4996963;28;20132;-74
2023/07/15 01:44:34;;;;;;;1.83;1.02;;;;;;;35.83;22.00;100947.78;4994433;28;20141;-75
2023/07/15 01:47:03;;;;;;;1.35;0.90;;;;;;;35.77;19.98;100942.84;5001282;28;20052;-75
2023/07/15 01:49:31;;;;;;;2.47;1.10;;;;;;;35.72;19.96;100950.41;4993760;28;20492;-76
2023/07/15 01:52:00;;;;;;;2.20;1.10;;;;;;;35.68;20.96;100943.50;5000220;28;20058;-75
2023/07/15 01:54:28;;;;;;;3.28;1.08;;;;;;;35.64;19.96;100942.88;5007212;28;20484;-74
2023/07/15 01:56:57;;;;;;;1.90;1.05;;;;;;;35.58;20.87;100933.41;5001443;28;20097;-76
2023/07/15 01:59:27;;;;;;;3.58;1.15;;;;;;;35.53;20.70;100935.56;5001646;28;20112;-75
2023/07/15 02:01:58;;;;;;;1.25;1.05;;;;;;;35.46;20.49;100928.88;5009395;28;20440;-76
2023/07/15 02:04:27;;;;;;;2.60;1.10;;;;;;;35.45;21.22;100927.19;5005780;28;20046;-77
2023/07/15 02:06:55;;;;;;;1.65;0.98;;;;;;;35.42;20.94;100930.09;5007824;28;20061;-77
2023/07/15 02:09:24;;;;;;;2.17;1.00;;;;;;;35.34;20.54;100929.78;4998804;28;20058;-78
2023/07/15 02:11:53;;;;;;;1.45;1.10;;;;;;;35.23;21.01;100928.75;5002677;28;20130;-74
2023/07/15 02:14:21;;;;;;;1.83;0.93;;;;;;;35.09;20.86;100927.97;5007845;28;20054;-76
2023/07/15 02:16:52;;;;;;;3.38;1.00;;;;;;;34.94;20.94;100924.53;5008768;28;20100;-78
2023/07/15 02:19:20;;;;;;;1.43;1.10;;;;;;;34.93;20.70;100923.66;5009115;28;20049;-76
2023/07/15 02:21:49;;;;;;;2.08;1.00;;;;;;;34.88;21.29;100923.13;5009296;28;20042;-75
2023/07/15 02:24:18;;;;;;;0.90;0.80;;;;;;;34.82;21.31;100919.06;5009549;28;20050;-78
2023/07/15 02:26:46;;;;;;;1.20;1.00;;;;;;;34.78;21.66;100922.06;5008907;28;20495;-78
2023/07/15 02:29:15;;;;;;;2.22;1.15;;;;;;;34.68;22.34;100921.81;5003146;28;20572;-77
2023/07/15 02:31:44;;;;;;;1.85;0.88;;;;;;;34.62;22.17;100920.44;5006411;28;20054;-78
2023/07/15 02:34:14;;;;;;;2.70;0.80;;;;;;;34.58;22.05;100928.78;5020288;28;20045;-74
2023/07/15 02:36:43;;;;;;;1.25;1.00;;;;;;;34.51;22.98;100928.34;5013968;28;20050;-74
2023/07/15 02:39:12;;;;;;;2.45;0.90;;;;;;;34.45;22.59;100927.91;4998092;28;20132;-74
2023/07/15 02:41:41;;;;;;;1.23;0.80;;;;;;;34.38;22.09;100939.09;5007496;28;20062;-78
2023/07/15 02:44:10;;;;;;;1.40;0.85;;;;;;;34.32;22.65;100934.13;5001960;28;20053;-79
2023/07/15 02:46:38;;;;;;;2.47;1.00;;;;;;;34.26;23.22;100939.03;5006795;28;20057;-77
2023/07/15 02:49:07;;;;;;;2.58;1.10;;;;;;;34.20;22.89;100946.53;5005743;28;20408;-77
2023/07/15 02:51:37;;;;;;;4.63;1.23;;;;;;;34.12;22.45;100934.59;5010143;28;20045;-75
2023/07/15 02:54:06;;;;;;;2.00;1.00;;;;;;;34.04;22.99;100942.25;5003455;28;20566;-78
2023/07/15 02:56:35;;;;;;;1.75;1.00;;;;;;;33.93;21.72;100940.28;5008248;28;20463;-77
2023/07/15 02:59:04;;;;;;;1.30;0.75;;;;;;;33.85;22.14;100943.47;5008396;28;20085;-76
2023/07/15 03:01:32;;;;;;;1.95;1.08;;;;;;;33.77;23.04;100943.13;4999570;28;20050;-75
2023/07/15 03:04:01;;;;;;;2.22;0.70;;;;;;;33.71;22.72;100944.34;5006461;28;20519;-77
2023/07/15 03:06:30;;;;;;;2.10;0.80;;;;;;;33.64;23.25;100944.88;5007881;28;20056;-76
2023/07/15 03:09:00;;;;;;;1.08;0.80;;;;;;;33.57;22.77;100947.03;5006847;28;20117;-77
2023/07/15 03:11:28;;;;;;;2.15;0.82;;;;;;;33.50;23.00;100943.03;5013266;28;20447;-78
2023/07/15 03:13:57;;;;;;;1.25;1.00;;;;;;;33.42;22.75;100948.00;5012574;28;20042;-75
2023/07/15 03:16:26;;;;;;;1.38;0.90;;;;;;;33.32;22.79;100945.91;5028818;28;20042;-76
2023/07/15 03:18:54;;;;;;;2.28;0.80;;;;;;;33.24;23.95;100936.63;5027875;28;20072;-74
2023/07/15 03:21:23;;;;;;;2.78;0.77;;;;;;;33.14;23.25;100942.56;5030828;28;20068;-77
2023/07/15 03:23:51;;;;;;;1.23;0.80;;;;;;;33.06;24.08;100942.19;5028938;28;20054;-77
2023/07/15 03:26:22;;;;;;;2.05;0.70;;;;;;;32.96;24.41;100943.66;5003155;28;20061;-75
2023/07/15 03:28:50;;;;;;;1.90;0.90;;;;;;;32.87;24.38;100944.25;4997353;28;20054;-76
2023/07/15 03:31:19;;;;;;;1.77;0.90;;;;;;;32.76;24.16;100937.72;5003467;28;20057;-76
2023/07/15 03:33:51;;;;;;;0.88;0.70;;;;;;;32.66;24.86;100949.94;5013034;28;20046;-76
2023/07/15 03:36:20;;;;;;;2.53;0.82;;;;;;;32.56;25.02;100956.81;5002898;28;20043;-76
2023/07/15 03:38:49;;;;;;;1.15;0.80;;;;;;;32.46;25.34;100951.13;5006981;28;20108;-76
2023/07/15 03:41:17;;;;;;;1.17;0.90;;;;;;;32.35;25.38;100954.44;5006132;28;20049;-75
2023/07/15 03:43:48;;;;;;;2.60;0.80;;;;;;;32.25;25.35;100961.25;4996347;28;20054;-75
2023/07/15 03:46:16;;;;;;;1.95;1.00;;;;;;;32.14;26.10;100959.22;5003658;28;20050;-76
2023/07/15 03:48:45;;;;;;;4.80;1.10;;;;;;;32.03;26.78;100955.44;5002840;28;20045;-75
2023/07/15 03:51:14;;;;;;;1.70;0.70;;;;;;;31.92;27.20;100956.88;5002558;28;20050;-77
2023/07/15 03:53:42;;;;;;;1.23;0.90;;;;;;;31.82;26.94;100961.03;4998359;28;20054;-76
2023/07/15 03:56:11;;;;;;;1.92;0.90;;;;;;;31.72;27.27;100959.81;5009582;28;20041;-76
2023/07/15 03:58:38;;;;;;;1.15;0.82;;;;;;;31.61;26.79;100955.06;5011364;28;20495;-76
2023/07/15 04:01:08;;;;;;;2.80;0.80;;;;;;;31.50;26.99;100958.34;5008075;28;20052;-76
2023/07/15 04:03:37;;;;;;;1.52;1.00;;;;;;;31.40;27.50;100956.19;5003311;28;20057;-75
2023/07/15 04:06:05;;;;;;;1.40;0.80;;;;;;;31.29;27.38;100960.34;4999101;28;20050;-75
2023/07/15 04:08:34;;;;;;;1.10;0.93;;;;;;;31.19;28.17;100960.91;4999359;28;20046;-75
2023/07/15 04:11:03;;;;;;;1.55;0.80;;;;;;;31.09;27.71;100961.41;5002832;28;20045;-75
2023/07/15 04:13:31;;;;;;;1.83;0.95;;;;;;;31.01;27.48;100958.25;5003192;28;20942;-75
2023/07/15 04:16:00;;;;;;;2.28;1.00;;;;;;;30.93;28.37;100963.16;5005395;28;20076;-75
2023/07/15 04:18:30;;;;;;;2.38;0.98;;;;;;;30.85;27.99;100968.03;5003738;28;20116;-73
2023/07/15 04:20:58;;;;;;;2.17;1.10;;;;;;;30.75;28.49;100962.28;4999176;28;20492;-77
2023/07/15 04:23:27;;;;;;;2.55;1.10;;;;;;;30.66;28.18;100976.09;5020582;28;20073;-74
2023/07/15 04:25:55;;;;;;;1.58;1.20;;;;;;;30.56;28.72;100982.84;4998848;28;20045;-75
2023/07/15 04:28:24;;;;;;;1.50;1.00;;;;;;;30.44;28.73;100984.31;5006529;28;20045;-73
2023/07/15 04:30:52;;;;;;;1.70;1.10;;;;;;;30.36;29.20;100991.88;4999879;28;20054;-75
2023/07/15 04:33:22;;;;;;;1.45;1.25;;;;;;;30.25;29.36;100985.19;5018375;28;20619;-76
2023/07/15 04:35:53;;;;;;;1.35;1.08;;;;;;;30.18;29.56;100994.44;5011301;28;20057;-74
2023/07/15 04:38:23;;;;;;;1.95;1.13;;;;;;;30.13;29.57;101000.97;5008017;28;20049;-74
2023/07/15 04:40:51;;;;;;;3.13;1.15;;;;;;;30.04;30.40;100997.78;5004806;28;20722;-75
2023/07/15 04:43:22;;;;;;;1.95;1.13;;;;;;;29.97;30.45;101001.69;4996463;28;20050;-77
2023/07/15 04:45:51;;;;;;;1.25;0.90;;;;;;;29.92;31.17;101002.88;5003104;28;20047;-78
2023/07/15 04:48:19;;;;;;;1.23;1.00;;;;;;;29.84;31.77;101000.53;5005733;28;20507;-80
2023/07/15 04:50:48;;;;;;;3.15;1.30;;;;;;;29.79;31.77;100992.75;4995661;28;20046;-75
2023/07/15 04:53:18;;;;;;;1.67;1.25;;;;;;;29.76;32.54;100994.72;5003299;28;20101;-79
2023/07/15 04:55:48;;;;;;;1.55;1.00;;;;;;;29.69;32.88;100987.91;5003655;28;20046;-76
2023/07/15 04:58:18;;;;;;;2.53;1.20;;;;;;;29.69;32.79;101003.91;5009288;28;20052;-75
2023/07/15 05:00:46;;;;;;;1.63;1.10;;;;;;;29.65;32.87;101001.38;4996544;28;20050;-74
2023/07/15 05:03:15;;;;;;;3.03;1.10;;;;;;;29.62;33.15;101001.53;5000348;28;20081;-74
2023/07/15 05:05:46;;;;;;;1.52;1.17;;;;;;;29.58;33.47;101002.59;5005128;28;20476;-77
2023/07/15 05:08:19;;;;;;;1.70;1.13;;;;;;;29.55;33.10;101009.84;5010785;28;20049;-80
2023/07/15 05:10:49;;;;;;;1.50;1.00;;;;;;;29.50;33.98;101011.88;5001004;28;20338;-80
2023/07/15 05:13:18;;;;;;;1.35;0.98;;;;;;;29.48;33.84;101008.41;5004675;28;20073;-77
2023/07/15 05:15:46;;;;;;;5.15;1.35;;;;;;;29.44;34.02;101015.69;5007816;28;20064;-76
2023/07/15 05:18:15;;;;;;;1.35;0.98;;;;;;;29.39;34.45;101021.22;5002403;28;20062;-79
2023/07/15 05:20:44;;;;;;;1.40;1.30;;;;;;;29.34;33.99;101015.22;4996128;28;20073;-77
2023/07/15 05:23:14;;;;;;;1.88;1.25;;;;;;;29.28;34.12;101018.19;5007514;28;20108;-76
2023/07/15 05:25:44;;;;;;;3.47;1.20;;;;;;;29.24;33.91;101021.91;5006902;28;20045;-74
2023/07/15 05:28:12;;;;;;;3.13;0.98;;;;;;;29.22;34.04;101021.97;5000354;28;20050;-76
2023/07/15 05:30:41;;;;;;;3.17;1.08;;;;;;;29.16;34.90;101018.69;5005570;28;20046;-77
2023/07/15 05:33:09;;;;;;;2.22;1.20;;;;;;;29.13;35.24;101024.19;5015258;28;20049;-76
2023/07/15 05:35:38;;;;;;;1.30;1.13;;;;;;;29.07;34.85;101029.72;5007731;28;20852;-80
2023/07/15 05:38:06;;;;;;;2.50;1.30;;;;;;;28.99;34.63;101022.06;4984565;28;20046;-75
2023/07/15 05:40:35;;;;;;;2.10;1.13;;;;;;;28.91;34.81;101018.88;5001523;28;20061;-80
2023/07/15 05:43:05;;;;;;;1.83;1.17;;;;;;;28.85;35.30;101022.66;5007448;28;20045;-80
2023/07/15 05:45:34;;;;;;;3.05;1.20;;;;;;;28.69;35.40;101013.59;5018125;28;20038;-77
2023/07/15 05:48:02;;;;;;;2.45;1.25;;;;;;;28.68;35.72;101026.06;5013527;28;20111;-81
2023/07/15 05:50:34;;;;;;;2.42;1.23;;;;;;;28.63;36.18;101024.50;5008721;28;20451;-77
2023/07/15 05:53:02;;;;;;;;;;;;;;;28.53;36.38;101029.34;5005982;28;20053;-78
2023/07/15 05:55:30;;;;;;;5.80;1.52;;;;;;;28.42;36.45;101027.09;5007544;28;20383;-74
2023/07/15 05:57:59;;;;;;;2.75;1.20;;;;;;;28.33;36.24;101030.13;5015062;28;20104;-78
2023/07/15 06:00:29;;;;;;;2.30;1.08;;;;;;;28.27;36.50;101027.72;4999238;28;20104;-82
2023/07/15 06:02:58;;;;;;;1.88;1.02;;;;;;;28.18;36.31;101028.94;5005059;28;20116;-76
2023/07/15 06:05:27;;;;;;;4.63;1.10;;;;;;;28.11;37.21;101028.31;5005986;28;20046;-80
2023/07/15 06:07:55;;;;;;;1.98;1.08;;;;;;;28.05;36.91;101023.22;5011994;28;20063;-78
2023/07/15 06:10:24;;;;;;;3.08;1.10;;;;;;;27.97;36.98;101028.84;5002909;28;20138;-78
2023/07/15 06:12:52;;;;;;;3.05;1.13;;;;;;;27.87;37.69;101023.94;5014040;28;20046;-76
2023/07/15 06:15:21;;;;;;;2.38;1.33;;;;;;;27.75;37.04;101028.78;5004425;28;20058;-80
2023/07/15 06:17:51;;;;;;;2.67;0.98;;;;;;;27.69;37.08;101039.63;5000314;28;20057;-83
2023/07/15 06:20:20;;;;;;;2.47;1.20;;;;;;;27.58;36.91;101021.44;5007465;28;20057;-76
2023/07/15 06:22:48;;;;;;;1.17;0.93;;;;;;;27.58;38.94;101029.41;5019073;28;20560;-75
2023/07/15 06:25:18;;;;;;;2.08;1.10;;;;;;;27.54;37.55;101035.75;5005852;28;20054;-77
2023/07/15 06:27:46;;;;;;;2.47;1.00;;;;;;;27.49;37.23;101034.22;5002634;28;20124;-76
2023/07/15 06:30:15;;;;;;;2.55;1.23;;;;;;;27.43;37.25;101037.94;5012472;28;20136;-80
2023/07/15 06:32:43;;;;;;;1.45;1.10;;;;;;;27.38;36.46;101033.72;5004840;28;20061;-78
2023/07/15 06:35:14;;;;;;;1.60;1.08;;;;;;;27.33;37.06;101034.75;5008599;28;20528;-76
2023/07/15 06:37:42;;;;;;;2.60;1.30;;;;;;;27.27;36.56;101031.44;5001704;28;20072;-77
2023/07/15 06:40:12;;;;;;;7.28;1.40;;;;;;;27.18;37.30;101029.94;5009751;28;20058;-78
2023/07/15 06:42:40;;;;;;;1.10;1.00;;;;;;;27.11;37.55;101041.72;4990850;28;20054;-77
2023/07/15 06:45:15;;;;;;;3.53;1.10;;;;;;;26.97;37.62;101018.28;5004135;28;20084;-79
2023/07/15 06:47:43;;;;;;;1.70;1.10;;;;;;;27.00;37.67;101038.56;5014563;28;20053;-79
2023/07/15 06:50:14;;;;;;;1.83;1.13;;;;;;;26.94;37.36;101031.69;5000715;28;20050;-78
2023/07/15 06:52:42;;;;;;;2.35;1.10;;;;;;;26.87;37.72;101027.47;5009093;28;20055;-79
2023/07/15 06:55:11;;;;;;;3.17;1.10;;;;;;;26.79;37.56;101022.44;5006677;28;20049;-78
2023/07/15 06:57:39;;;;;;;2.15;1.05;;;;;;;26.73;37.64;101025.28;5006749;28;20046;-78
2023/07/15 07:00:09;;;;;;;4.20;1.23;;;;;;;26.68;37.96;101025.44;5004393;28;20054;-77
2023/07/15 07:02:38;;;;;;;2.42;1.08;;;;;;;26.62;37.92;101030.97;5003494;28;20042;-77
2023/07/15 07:05:07;;;;;;;3.38;1.00;;;;;;;26.58;38.22;101028.47;5004298;28;20046;-76
2023/07/15 07:07:37;;;;;;;4.03;1.25;;;;;;;26.52;38.26;101030.34;5004844;28;20054;-76
2023/07/15 07:10:06;;;;;;;1.73;1.10;;;;;;;26.44;38.54;101024.44;5006331;28;20052;-77
2023/07/15 07:12:34;;;;;;;2.88;1.52;;;;;;;26.40;38.34;101027.25;5004216;28;20625;-76
2023/07/15 07:15:03;;;;;;;1.58;1.17;;;;;;;26.35;38.55;101026.53;5008253;28;20108;-77
2023/07/15 07:17:31;;;;;;;1.65;1.00;;;;;;;26.31;38.94;101025.75;5002940;28;20793;-77
2023/07/15 07:20:00;;;;;;;1.40;1.10;;;;;;;26.24;39.51;101024.19;4996739;28;20348;-77
2023/07/15 07:22:29;;;;;;;2.88;1.10;;;;;;;26.16;39.81;101028.88;5012068;28;20499;-77
2023/07/15 07:25:00;;;;;;;2.90;1.20;;;;;;;26.05;39.89;101021.25;5007101;28;20054;-76
2023/07/15 07:27:28;;;;;;;4.55;1.27;;;;;;;25.97;40.12;101026.78;5008177;28;20116;-77
2023/07/15 07:29:59;;;;;;;1.40;1.10;;;;;;;25.87;41.01;101036.78;5005466;28;20108;-76
2023/07/15 07:32:28;;;;;;;2.72;1.20;;;;;;;25.77;40.57;101034.41;5005898;28;20050;-78
2023/07/15 07:34:58;;;;;;;2.42;1.10;;;;;;;25.67;40.57;101021.44;5005894;28;20050;-75
2023/07/15 07:37:26;;;;;;;3.72;1.08;;;;;;;25.62;40.19;101031.31;5006793;28;20069;-79
2023/07/15 07:39:55;;;;;;;4.63;1.27;;;;;;;25.58;39.93;101024.34;5006117;28;20058;-78
2023/07/15 07:42:25;;;;;;;2.92;1.15;;;;;;;25.56;41.92;101031.47;4996101;28;20050;-78
2023/07/15 07:44:55;;;;;;;2.22;0.98;;;;;;;25.50;40.93;101026.38;4998649;28;20049;-76
2023/07/15 07:47:24;;;;;;;1.38;1.10;;;;;;;25.45;40.42;101023.00;5015331;28;20049;-76
2023/07/15 07:49:52;;;;;;;2.17;1.10;;;;;;;25.39;41.56;101023.16;5000966;28;20050;-76
2023/07/15 07:52:21;;;;;;;3.55;1.00;;;;;;;25.31;42.06;101022.47;5008750;28;20121;-76
2023/07/15 07:54:49;;;;;;;3.65;1.25;;;;;;;25.22;41.85;101026.25;4998503;28;20097;-77
2023/07/15 07:57:20;;;;;;;1.42;1.13;;;;;;;25.14;41.76;101029.06;5003859;28;20085;-76
2023/07/15 07:59:50;;;;;;;3.45;1.20;;;;;;;25.08;41.44;101035.41;5002243;28;20049;-75
2023/07/15 08:02:19;;;;;;;2.03;1.08;;;;;;;25.00;42.10;101033.88;5003527;28;20061;-77
2023/07/15 08:04:48;;;;;;;1.60;1.10;;;;;;;24.94;42.64;101040.16;5004539;28;20041;-77
2023/07/15 08:07:17;;;;;;;2.33;1.20;;;;;;;24.93;42.74;101034.94;5005399;28;20042;-77
2023/07/15 08:09:45;;;;;;;2.40;1.00;;;;;;;24.86;42.88;101029.78;5001302;28;20038;-76
2023/07/15 08:12:14;;;;;;;2.22;1.08;;;;;;;24.81;43.23;101031.69;5000171;28;20046;-78
2023/07/15 08:14:42;;;;;;;2.60;1.13;;;;;;;24.75;42.47;101037.13;4998673;28;20061;-77
2023/07/15 08:17:16;;;;;;;1.52;1.02;;;;;;;24.66;43.76;101037.34;5004538;28;20644;-78
2023/07/15 08:19:44;;;;;;;1.38;1.10;;;;;;;24.60;42.98;101037.50;5004889;28;20521;-77
2023/07/15 08:22:13;;;;;;;2.85;1.00;;;;;;;24.53;42.92;101035.91;5006874;28;20213;-76
2023/07/15 08:24:42;;;;;;;2.65;1.30;;;;;;;24.45;43.01;101034.28;5005109;28;20050;-78
2023/07/15 08:27:11;;;;;;;1.90;1.10;;;;;;;24.39;42.45;101033.56;5011544;28;20487;-77
2023/07/15 08:29:42;;;;;;;2.25;1.00;;;;;;;24.33;43.37;101031.09;5010364;28;20046;-78
2023/07/15 08:32:13;;;;;;;2.88;1.27;;;;;;;24.27;42.69;101026.78;5011862;28;20054;-77
2023/07/15 08:34:57;;;;;;;1.90;1.30;;;;;;;24.23;41.81;101036.59;5013545;28;20045;-81
2023/07/15 08:37:29;;;;;;;1.55;0.82;;;;;;;24.16;41.94;101027.03;5006236;28;20050;-80
2023/07/15 08:39:57;;;;;;;2.60;1.13;;;;;;;24.14;41.75;101027.97;5012414;28;20050;-78
2023/07/15 08:42:27;;;;;;;2.15;1.10;;;;;;;24.11;41.35;101028.03;5012905;28;20052;-78
2023/07/15 08:44:58;;;;;;;2.58;1.05;;;;;;;24.10;42.42;101035.09;5013072;28;20050;-76
2023/07/15 08:47:28;;;;;;;1.95;1.25;;;;;;;24.11;41.86;101035.97;5015434;28;20515;-75
2023/07/15 08:50:01;;;;;;;3.20;1.10;;;;;;;24.11;41.62;101033.34;5011199;28;20050;-78
2023/07/15 08:52:32;;;;;;;4.55;1.40;;;;;;;24.09;41.63;101035.13;5006267;28;20041;-76
2023/07/15 08:55:02;;;;;;;2.75;1.20;;;;;;;24.08;41.68;101028.13;5005344;28;20049;-77
2023/07/15 08:57:31;;;;;;;1.70;1.10;;;;;;;24.06;41.25;101029.94;5040048;28;20120;-77
2023/07/15 09:00:03;;;;;;;1.30;1.02;;;;;;;24.02;42.06;101029.97;5028243;28;20095;-78
2023/07/15 09:02:37;;;;;;;1.30;0.90;;;;;;;23.98;42.19;101033.59;5028608;28;20045;-77
2023/07/15 09:05:09;;;;;;;2.08;0.93;;;;;;;23.94;41.99;101037.22;5021972;28;20049;-79
2023/07/15 09:07:46;;;;;;;1.35;0.98;;;;;;;23.88;42.31;101037.34;5003767;28;20066;-78
2023/07/15 09:10:15;;;;;;;2.20;0.90;;;;;;;23.85;42.63;101037.41;5005539;28;20046;-77
2023/07/15 09:12:48;;;;;;;1.15;0.98;;;;;;;23.82;42.81;101032.16;4996677;28;20551;-77
2023/07/15 09:15:17;;;;;;;3.13;1.00;;;;;;;23.79;42.46;101038.38;5009844;28;20566;-80
2023/07/15 09:17:53;;;;;;;2.75;1.45;;;;;;;23.76;42.79;101037.59;4997441;28;20078;-77
2023/07/15 09:20:22;;;;;;;2.25;1.10;;;;;;;23.69;43.26;101047.38;5002243;28;20125;-76
2023/07/15 09:22:53;;;;;;;3.40;1.30;;;;;;;23.63;43.32;101043.09;5010564;28;20050;-76
2023/07/15 09:25:25;;;;;;;2.95;1.10;;;;;;;23.58;42.69;101039.66;5006975;28;20125;-80
2023/07/15 09:27:53;;;;;;;;;;;;;;;23.53;42.62;101041.53;5006700;28;20057;-78
2023/07/15 09:30:22;;;;;;;2.67;1.27;;;;;;;23.50;42.20;101040.72;5005367;28;19929;-77
2023/07/15 09:32:53;;;;;;;2.25;1.10;;;;;;;23.48;42.93;101042.50;5004814;28;20041;-77
2023/07/15 09:35:36;;;;;;;3.08;1.30;;;;;;;23.44;42.70;101047.00;5005781;28;20088;-76
2023/07/15 09:38:10;;;;;;;2.50;1.10;;;;;;;23.40;43.15;101042.66;5000616;28;20042;-77
2023/07/15 09:40:45;;;;;;;3.70;1.45;;;;;;;23.34;42.79;101051.59;5000239;28;20124;-76
2023/07/15 09:43:14;;;;;;;3.13;1.30;;;;;;;23.29;43.42;101047.28;5006974;28;20510;-77
2023/07/15 09:45:43;;;;;;;2.88;1.20;;;;;;;23.24;43.32;101050.00;5007563;28;20041;-79
2023/07/15 09:48:16;;;;;;;1.85;1.00;;;;;;;23.15;45.47;101045.75;5022272;28;20129;-77
2023/07/15 09:50:45;;;;;;;3.03;1.33;;;;;;;23.07;45.70;101050.31;5003222;28;20042;-79
2023/07/15 09:53:14;;;;;;;2.63;1.13;;;;;;;22.99;45.99;101047.78;5005716;28;20049;-76
2023/07/15 09:55:43;;;;;;;4.03;1.30;;;;;;;22.94;45.02;101051.38;5001920;28;20126;-76
2023/07/15 09:58:15;;;;;;;2.78;1.35;;;;;;;22.89;46.18;101053.25;5006941;28;20096;-75
2023/07/15 10:00:48;;;;;;;1.38;1.17;;;;;;;22.84;45.95;101049.78;5001072;28;20050;-76
2023/07/15 10:03:25;;;;;;;1.45;1.10;;;;;;;22.75;44.89;101040.28;5004239;28;20258;-75
2023/07/15 10:05:57;;;;;;;4.18;1.13;;;;;;;22.75;43.54;101046.41;5001309;28;20046;-76
2023/07/15 10:08:27;;;;;;;2.72;1.33;;;;;;;22.70;47.10;101053.53;5006762;28;20102;-76
2023/07/15 10:10:55;;;;;;;2.35;1.20;;;;;;;22.61;47.72;101048.41;5004828;28;20046;-77
2023/07/15 10:13:24;;;;;;;2.22;1.20;;;;;;;22.53;48.78;101052.94;5007832;28;20050;-76
2023/07/15 10:15:53;;;;;;;2.15;1.08;;;;;;;22.48;46.47;101058.28;5021461;28;20085;-76
2023/07/15 10:18:24;;;;;;;1.60;0.90;;;;;;;22.47;46.41;101066.19;5005996;28;20077;-76
2023/07/15 10:20:57;;;;;;;2.30;1.08;;;;;;;22.46;46.33;101053.91;5014247;28;20109;-77
2023/07/15 10:23:29;;;;;;;1.10;1.00;;;;;;;22.42;44.71;101061.00;5022066;28;20491;-76
2023/07/15 10:26:00;;;;;;;;;;;;;;;22.38;48.53;101060.19;5005434;28;20584;-76
2023/07/15 10:28:34;;;;;;;2.03;1.10;;;;;;;22.32;48.12;101056.75;5005871;28;19969;-76
2023/07/15 10:31:11;;;;;;;2.70;1.20;;;;;;;22.29;47.31;101057.66;4997079;28;20100;-75
2023/07/15 10:33:57;;;;;;;1.50;1.10;;;;;;;22.28;48.68;101066.47;5009712;28;20507;-76
2023/07/15 10:36:40;;;;;;;1.80;1.05;;;;;;;22.24;47.32;101064.78;5002950;28;20488;-77
2023/07/15 10:39:13;;;;;;;1.88;1.10;;;;;;;22.15;47.08;101064.84;5004311;28;20049;-76
2023/07/15 10:41:43;;;;;;;1.40;1.00;;;;;;;22.05;48.28;101068.50;5003972;28;20042;-76
2023/07/15 10:44:19;;;;;;;3.08;1.17;;;;;;;21.92;47.56;101060.78;5000107;28;20133;-77
2023/07/15 10:46:48;;;;;;;1.35;1.17;;;;;;;21.80;48.07;101062.66;5012951;28;20045;-77
2023/07/15 10:49:21;;;;;;;1.50;1.25;;;;;;;21.72;48.30;101065.41;5008311;28;20056;-77
2023/07/15 10:51:52;;;;;;;2.10;1.25;;;;;;;21.66;47.97;101073.38;5007974;28;20046;-77
2023/07/15 10:54:24;;;;;;;1.80;1.15;;;;;;;21.58;49.13;101068.19;5004388;28;20129;-76
2023/07/15 10:56:53;;;;;;;1.80;1.10;;;;;;;21.47;49.04;101065.66;5002335;28;20109;-76
2023/07/15 10:59:24;;;;;;;1.38;1.13;;;;;;;21.38;48.69;101071.00;5003053;28;20049;-77
2023/07/15 11:01:53;;;;;;;1.73;1.13;;;;;;;21.34;49.28;101070.13;5004497;28;20503;-78
2023/07/15 11:04:23;;;;;;;3.70;1.20;;;;;;;21.25;49.11;101062.34;5003776;28;20049;-78
2023/07/15 11:06:52;;;;;;;2.53;1.38;;;;;;;21.22;49.40;101069.41;5002579;28;20054;-78
2023/07/15 11:09:22;;;;;;;1.50;1.02;;;;;;;21.15;49.39;101073.84;5005226;28;20054;-78
2023/07/15 11:11:51;;;;;;;1.40;0.75;;;;;;;21.06;49.88;101074.81;5002039;28;20050;-76
2023/07/15 11:14:24;;;;;;;2.00;1.00;;;;;;;20.95;49.61;101076.66;5005430;28;20065;-76
2023/07/15 11:17:01;;;;;;;0.88;0.60;;;;;;;20.87;50.52;101073.22;5001693;28;20504;-76
2023/07/15 11:19:38;;;;;;;2.58;1.05;;;;;;;20.80;50.94;101071.50;5006686;28;20491;-77
2023/07/15 11:22:09;;;;;;;1.00;0.70;;;;;;;20.77;50.78;101076.78;5029919;28;20068;-76
2023/07/15 11:24:37;;;;;;;1.65;1.00;;;;;;;20.74;50.83;101063.69;5009925;28;20128;-77
2023/07/15 11:27:06;;;;;;;1.52;0.80;;;;;;;20.71;50.74;101070.69;5002551;28;20049;-76
2023/07/15 11:29:35;;;;;;;1.10;0.82;;;;;;;20.68;50.18;101073.38;5007946;28;20054;-75
2023/07/15 11:32:04;;;;;;;2.08;0.80;;;;;;;20.62;51.32;101068.13;5005142;28;20057;-76
2023/07/15 11:34:34;;;;;;;1.33;0.80;;;;;;;20.55;51.85;101076.03;4997770;28;20060;-79
2023/07/15 11:37:07;;;;;;;3.33;0.90;;;;;;;20.47;51.44;101076.94;4998314;28;20050;-76
2023/07/15 11:39:42;;;;;;;2.45;1.30;;;;;;;20.43;51.43;101076.97;4996629;28;20058;-76